sensor_id;sensor_type;location;lat;lon;timestamp;P1;durP1;ratioP1;P2;durP2;ratioP2
43327;SDS011;28923;45.412;10.852;2022-09-09T00:01:51;1.00;;;0.50;;
43327;SDS011;28923;45.412;10.852;2022-09-09T00:06:45;0.88;;;0.70;;
43327;SDS011;28923;45.412;10.852;2022-09-09T00:09:19;1.05;;;0.60;;
43327;SDS011;28923;45.412;10.852;2022-09-09T00:20:00;0.82;;;0.60;;
43327;SDS011;28923;45.412;10.852;2022-09-09T00:22:28;0.65;;;0.60;;
43327;SDS011;28923;45.412;10.852;2022-09-09T00:24:57;0.50;;;0.50;;
43327;SDS011;28923;45.412;10.852;2022-09-09T00:30:03;0.43;;;0.43;;
43327;SDS011;28923;45.412;10.852;2022-09-09T00:32:29;0.52;;;0.45;;
43327;SDS011;28923;45.412;10.852;2022-09-09T00:37:51;0.57;;;0.57;;
43327;SDS011;28923;45.412;10.852;2022-09-09T00:40:21;0.60;;;0.38;;
43327;SDS011;28923;45.412;10.852;2022-09-09T00:42:47;0.50;;;0.50;;
43327;SDS011;28923;45.412;10.852;2022-09-09T00:45:34;0.52;;;0.52;;
43327;SDS011;28923;45.412;10.852;2022-09-09T00:48:02;0.52;;;0.52;;
43327;SDS011;28923;45.412;10.852;2022-09-09T00:53:09;0.60;;;0.60;;
43327;SDS011;28923;45.412;10.852;2022-09-09T00:58:06;0.50;;;0.50;;
43327;SDS011;28923;45.412;10.852;2022-09-09T01:11:01;0.50;;;0.50;;
43327;SDS011;28923;45.412;10.852;2022-09-09T01:13:30;0.50;;;0.50;;
43327;SDS011;28923;45.412;10.852;2022-09-09T01:16:00;0.50;;;0.40;;
43327;SDS011;28923;45.412;10.852;2022-09-09T01:18:32;0.88;;;0.60;;
43327;SDS011;28923;45.412;10.852;2022-09-09T01:28:56;0.40;;;0.40;;
43327;SDS011;28923;45.412;10.852;2022-09-09T01:31:31;0.60;;;0.50;;
43327;SDS011;28923;45.412;10.852;2022-09-09T01:33:57;0.50;;;0.50;;
43327;SDS011;28923;45.412;10.852;2022-09-09T01:38:51;0.40;;;0.40;;
43327;SDS011;28923;45.412;10.852;2022-09-09T01:41:17;0.50;;;0.50;;
43327;SDS011;28923;45.412;10.852;2022-09-09T01:43:48;0.40;;;0.40;;
43327;SDS011;28923;45.412;10.852;2022-09-09T01:46:14;0.40;;;0.40;;
43327;SDS011;28923;45.412;10.852;2022-09-09T01:48:40;0.60;;;0.40;;
43327;SDS011;28923;45.412;10.852;2022-09-09T01:51:08;0.40;;;0.40;;
43327;SDS011;28923;45.412;10.852;2022-09-09T01:53:35;0.88;;;0.45;;
43327;SDS011;28923;45.412;10.852;2022-09-09T02:03:40;0.65;;;0.40;;
43327;SDS011;28923;45.412;10.852;2022-09-09T02:06:34;1.00;;;0.50;;
43327;SDS011;28923;45.412;10.852;2022-09-09T02:09:11;0.93;;;0.50;;
43327;SDS011;28923;45.412;10.852;2022-09-09T02:11:38;0.40;;;0.40;;
43327;SDS011;28923;45.412;10.852;2022-09-09T02:14:19;0.52;;;0.40;;
43327;SDS011;28923;45.412;10.852;2022-09-09T02:16:50;0.60;;;0.60;;
43327;SDS011;28923;45.412;10.852;2022-09-09T02:21:59;0.43;;;0.40;;
43327;SDS011;28923;45.412;10.852;2022-09-09T02:24:26;0.30;;;0.30;;
43327;SDS011;28923;45.412;10.852;2022-09-09T02:27:04;0.50;;;0.40;;
43327;SDS011;28923;45.412;10.852;2022-09-09T02:29:33;0.50;;;0.40;;
43327;SDS011;28923;45.412;10.852;2022-09-09T02:32:00;0.52;;;0.40;;
43327;SDS011;28923;45.412;10.852;2022-09-09T02:34:31;0.65;;;0.45;;
43327;SDS011;28923;45.412;10.852;2022-09-09T02:36:59;0.50;;;0.50;;
43327;SDS011;28923;45.412;10.852;2022-09-09T02:39:26;0.30;;;0.30;;
43327;SDS011;28923;45.412;10.852;2022-09-09T02:41:51;0.50;;;0.50;;
43327;SDS011;28923;45.412;10.852;2022-09-09T02:44:25;0.50;;;0.50;;
43327;SDS011;28923;45.412;10.852;2022-09-09T02:46:56;0.50;;;0.50;;
43327;SDS011;28923;45.412;10.852;2022-09-09T02:49:27;0.50;;;0.45;;
43327;SDS011;28923;45.412;10.852;2022-09-09T02:52:01;0.32;;;0.32;;
43327;SDS011;28923;45.412;10.852;2022-09-09T02:54:30;0.40;;;0.40;;
43327;SDS011;28923;45.412;10.852;2022-09-09T02:57:43;0.32;;;0.30;;
43327;SDS011;28923;45.412;10.852;2022-09-09T02:59:46;1.10;;;0.40;;
43327;SDS011;28923;45.412;10.852;2022-09-09T03:02:12;0.80;;;0.60;;
43327;SDS011;28923;45.412;10.852;2022-09-09T03:04:39;0.90;;;0.40;;
43327;SDS011;28923;45.412;10.852;2022-09-09T03:07:07;0.60;;;0.40;;
43327;SDS011;28923;45.412;10.852;2022-09-09T03:09:33;0.40;;;0.40;;
43327;SDS011;28923;45.412;10.852;2022-09-09T03:11:58;0.35;;;0.35;;
43327;SDS011;28923;45.412;10.852;2022-09-09T03:14:25;0.30;;;0.30;;
43327;SDS011;28923;45.412;10.852;2022-09-09T03:16:51;0.68;;;0.35;;
43327;SDS011;28923;45.412;10.852;2022-09-09T03:19:17;0.50;;;0.50;;
43327;SDS011;28923;45.412;10.852;2022-09-09T03:21:44;0.55;;;0.40;;
43327;SDS011;28923;45.412;10.852;2022-09-09T03:24:09;0.30;;;0.30;;
43327;SDS011;28923;45.412;10.852;2022-09-09T03:26:35;0.40;;;0.40;;
43327;SDS011;28923;45.412;10.852;2022-09-09T03:29:00;0.60;;;0.60;;
43327;SDS011;28923;45.412;10.852;2022-09-09T03:31:26;0.43;;;0.43;;
43327;SDS011;28923;45.412;10.852;2022-09-09T03:33:56;0.45;;;0.30;;
43327;SDS011;28923;45.412;10.852;2022-09-09T03:36:24;0.40;;;0.40;;
43327;SDS011;28923;45.412;10.852;2022-09-09T03:38:51;0.63;;;0.50;;
43327;SDS011;28923;45.412;10.852;2022-09-09T03:41:17;0.50;;;0.40;;
43327;SDS011;28923;45.412;10.852;2022-09-09T03:43:43;0.38;;;0.38;;
43327;SDS011;28923;45.412;10.852;2022-09-09T03:46:09;0.40;;;0.40;;
43327;SDS011;28923;45.412;10.852;2022-09-09T03:48:35;0.40;;;0.40;;
43327;SDS011;28923;45.412;10.852;2022-09-09T03:51:02;0.50;;;0.50;;
43327;SDS011;28923;45.412;10.852;2022-09-09T03:53:30;0.52;;;0.40;;
43327;SDS011;28923;45.412;10.852;2022-09-09T03:55:57;0.95;;;0.32;;
43327;SDS011;28923;45.412;10.852;2022-09-09T03:58:25;0.43;;;0.43;;
43327;SDS011;28923;45.412;10.852;2022-09-09T04:01:05;0.50;;;0.50;;
43327;SDS011;28923;45.412;10.852;2022-09-09T04:03:32;0.60;;;0.50;;
43327;SDS011;28923;45.412;10.852;2022-09-09T04:05:59;0.82;;;0.40;;
43327;SDS011;28923;45.412;10.852;2022-09-09T04:08:26;0.65;;;0.40;;
43327;SDS011;28923;45.412;10.852;2022-09-09T04:10:53;0.40;;;0.30;;
43327;SDS011;28923;45.412;10.852;2022-09-09T04:13:18;0.35;;;0.35;;
43327;SDS011;28923;45.412;10.852;2022-09-09T04:15:52;0.40;;;0.40;;
43327;SDS011;28923;45.412;10.852;2022-09-09T04:20:47;0.50;;;0.40;;
43327;SDS011;28923;45.412;10.852;2022-09-09T04:23:14;0.40;;;0.40;;
43327;SDS011;28923;45.412;10.852;2022-09-09T04:25:46;0.52;;;0.43;;
43327;SDS011;28923;45.412;10.852;2022-09-09T04:28:15;1.00;;;0.28;;
43327;SDS011;28923;45.412;10.852;2022-09-09T04:30:41;0.30;;;0.30;;
43327;SDS011;28923;45.412;10.852;2022-09-09T04:33:08;1.15;;;0.60;;
43327;SDS011;28923;45.412;10.852;2022-09-09T04:35:34;0.22;;;0.22;;
43327;SDS011;28923;45.412;10.852;2022-09-09T04:38:00;0.60;;;0.50;;
43327;SDS011;28923;45.412;10.852;2022-09-09T04:40:29;1.48;;;0.55;;
43327;SDS011;28923;45.412;10.852;2022-09-09T04:42:57;0.73;;;0.32;;
43327;SDS011;28923;45.412;10.852;2022-09-09T04:45:23;0.43;;;0.40;;
43327;SDS011;28923;45.412;10.852;2022-09-09T04:47:49;0.32;;;0.30;;
43327;SDS011;28923;45.412;10.852;2022-09-09T04:50:14;1.35;;;0.45;;
43327;SDS011;28923;45.412;10.852;2022-09-09T04:52:40;1.60;;;0.70;;
43327;SDS011;28923;45.412;10.852;2022-09-09T04:55:07;1.90;;;1.10;;
43327;SDS011;28923;45.412;10.852;2022-09-09T04:57:34;2.38;;;0.88;;
43327;SDS011;28923;45.412;10.852;2022-09-09T04:59:59;3.05;;;1.27;;
43327;SDS011;28923;45.412;10.852;2022-09-09T05:02:29;3.60;;;1.50;;
43327;SDS011;28923;45.412;10.852;2022-09-09T05:04:55;3.45;;;1.58;;
43327;SDS011;28923;45.412;10.852;2022-09-09T05:07:22;2.45;;;1.25;;
43327;SDS011;28923;45.412;10.852;2022-09-09T05:09:47;7.75;;;1.70;;
43327;SDS011;28923;45.412;10.852;2022-09-09T05:12:15;3.03;;;1.67;;
43327;SDS011;28923;45.412;10.852;2022-09-09T05:14:48;4.63;;;1.42;;
43327;SDS011;28923;45.412;10.852;2022-09-09T05:17:13;2.72;;;1.58;;
43327;SDS011;28923;45.412;10.852;2022-09-09T05:19:40;4.55;;;1.88;;
43327;SDS011;28923;45.412;10.852;2022-09-09T05:22:05;3.25;;;1.60;;
43327;SDS011;28923;45.412;10.852;2022-09-09T05:24:38;4.13;;;1.80;;
43327;SDS011;28923;45.412;10.852;2022-09-09T05:27:04;2.17;;;1.60;;
43327;SDS011;28923;45.412;10.852;2022-09-09T05:29:32;4.13;;;1.40;;
43327;SDS011;28923;45.412;10.852;2022-09-09T05:31:59;2.72;;;1.55;;
43327;SDS011;28923;45.412;10.852;2022-09-09T05:34:24;3.85;;;1.80;;
43327;SDS011;28923;45.412;10.852;2022-09-09T05:36:50;2.50;;;1.70;;
43327;SDS011;28923;45.412;10.852;2022-09-09T05:39:16;3.65;;;1.80;;
43327;SDS011;28923;45.412;10.852;2022-09-09T05:41:41;3.88;;;1.60;;
43327;SDS011;28923;45.412;10.852;2022-09-09T05:44:07;4.22;;;1.50;;
43327;SDS011;28923;45.412;10.852;2022-09-09T05:46:37;3.78;;;1.60;;
43327;SDS011;28923;45.412;10.852;2022-09-09T05:49:03;6.03;;;1.88;;
43327;SDS011;28923;45.412;10.852;2022-09-09T05:51:31;3.08;;;1.65;;
43327;SDS011;28923;45.412;10.852;2022-09-09T05:54:01;5.50;;;1.90;;
43327;SDS011;28923;45.412;10.852;2022-09-09T05:56:30;4.40;;;1.60;;
43327;SDS011;28923;45.412;10.852;2022-09-09T05:58:58;3.35;;;1.60;;
43327;SDS011;28923;45.412;10.852;2022-09-09T06:04:01;6.25;;;1.90;;
43327;SDS011;28923;45.412;10.852;2022-09-09T06:06:32;2.75;;;1.63;;
43327;SDS011;28923;45.412;10.852;2022-09-09T06:09:02;5.88;;;2.17;;
43327;SDS011;28923;45.412;10.852;2022-09-09T06:11:35;4.93;;;2.10;;
43327;SDS011;28923;45.412;10.852;2022-09-09T06:14:02;6.25;;;2.28;;
43327;SDS011;28923;45.412;10.852;2022-09-09T06:16:29;4.40;;;2.13;;
43327;SDS011;28923;45.412;10.852;2022-09-09T06:18:58;6.07;;;2.15;;
43327;SDS011;28923;45.412;10.852;2022-09-09T06:21:29;4.20;;;2.20;;
43327;SDS011;28923;45.412;10.852;2022-09-09T06:23:56;3.97;;;2.20;;
43327;SDS011;28923;45.412;10.852;2022-09-09T06:26:23;6.10;;;2.15;;
43327;SDS011;28923;45.412;10.852;2022-09-09T06:28:52;5.35;;;2.50;;
43327;SDS011;28923;45.412;10.852;2022-09-09T06:31:21;5.35;;;2.03;;
43327;SDS011;28923;45.412;10.852;2022-09-09T06:33:49;4.13;;;1.95;;
43327;SDS011;28923;45.412;10.852;2022-09-09T06:36:16;4.00;;;1.98;;
43327;SDS011;28923;45.412;10.852;2022-09-09T06:38:43;4.55;;;2.10;;
43327;SDS011;28923;45.412;10.852;2022-09-09T06:41:12;5.50;;;2.03;;
43327;SDS011;28923;45.412;10.852;2022-09-09T06:43:38;5.57;;;2.10;;
43327;SDS011;28923;45.412;10.852;2022-09-09T06:46:05;5.30;;;1.63;;
43327;SDS011;28923;45.412;10.852;2022-09-09T06:48:32;2.38;;;1.83;;
43327;SDS011;28923;45.412;10.852;2022-09-09T06:51:02;3.00;;;1.92;;
43327;SDS011;28923;45.412;10.852;2022-09-09T06:53:29;3.63;;;1.85;;
43327;SDS011;28923;45.412;10.852;2022-09-09T06:55:55;5.88;;;2.45;;
43327;SDS011;28923;45.412;10.852;2022-09-09T06:58:21;5.43;;;1.95;;
43327;SDS011;28923;45.412;10.852;2022-09-09T07:00:48;3.70;;;1.63;;
43327;SDS011;28923;45.412;10.852;2022-09-09T07:03:15;3.28;;;1.63;;
43327;SDS011;28923;45.412;10.852;2022-09-09T07:05:40;2.20;;;1.50;;
43327;SDS011;28923;45.412;10.852;2022-09-09T07:08:06;6.32;;;1.77;;
43327;SDS011;28923;45.412;10.852;2022-09-09T07:10:31;2.22;;;1.45;;
43327;SDS011;28923;45.412;10.852;2022-09-09T07:12:57;4.95;;;1.92;;
43327;SDS011;28923;45.412;10.852;2022-09-09T07:15:24;6.18;;;1.48;;
43327;SDS011;28923;45.412;10.852;2022-09-09T07:17:51;5.97;;;1.90;;
43327;SDS011;28923;45.412;10.852;2022-09-09T07:20:18;6.35;;;1.75;;
43327;SDS011;28923;45.412;10.852;2022-09-09T07:22:45;5.53;;;1.77;;
43327;SDS011;28923;45.412;10.852;2022-09-09T07:25:11;4.00;;;1.50;;
43327;SDS011;28923;45.412;10.852;2022-09-09T07:27:36;3.85;;;1.65;;
43327;SDS011;28923;45.412;10.852;2022-09-09T07:30:03;5.53;;;1.65;;
43327;SDS011;28923;45.412;10.852;2022-09-09T07:32:31;3.60;;;1.77;;
43327;SDS011;28923;45.412;10.852;2022-09-09T07:34:56;6.28;;;1.67;;
43327;SDS011;28923;45.412;10.852;2022-09-09T07:37:24;6.28;;;1.52;;
43327;SDS011;28923;45.412;10.852;2022-09-09T07:39:51;5.75;;;1.30;;
43327;SDS011;28923;45.412;10.852;2022-09-09T07:42:17;5.15;;;1.73;;
43327;SDS011;28923;45.412;10.852;2022-09-09T07:44:46;2.90;;;1.40;;
43327;SDS011;28923;45.412;10.852;2022-09-09T07:47:14;1.92;;;1.60;;
43327;SDS011;28923;45.412;10.852;2022-09-09T07:49:45;3.28;;;1.55;;
43327;SDS011;28923;45.412;10.852;2022-09-09T07:52:13;2.80;;;1.40;;
43327;SDS011;28923;45.412;10.852;2022-09-09T07:54:41;3.72;;;1.70;;
43327;SDS011;28923;45.412;10.852;2022-09-09T07:57:07;3.35;;;1.40;;
43327;SDS011;28923;45.412;10.852;2022-09-09T07:59:35;3.35;;;1.50;;
43327;SDS011;28923;45.412;10.852;2022-09-09T08:02:02;3.60;;;1.52;;
43327;SDS011;28923;45.412;10.852;2022-09-09T08:04:30;2.45;;;1.65;;
43327;SDS011;28923;45.412;10.852;2022-09-09T08:06:57;1.58;;;1.23;;
43327;SDS011;28923;45.412;10.852;2022-09-09T08:09:24;3.42;;;1.30;;
43327;SDS011;28923;45.412;10.852;2022-09-09T08:11:59;3.00;;;1.60;;
43327;SDS011;28923;45.412;10.852;2022-09-09T08:14:25;3.70;;;1.33;;
43327;SDS011;28923;45.412;10.852;2022-09-09T08:16:51;4.38;;;1.40;;
43327;SDS011;28923;45.412;10.852;2022-09-09T08:19:21;3.72;;;1.30;;
43327;SDS011;28923;45.412;10.852;2022-09-09T08:21:46;3.17;;;1.70;;
43327;SDS011;28923;45.412;10.852;2022-09-09T08:24:14;4.10;;;1.58;;
43327;SDS011;28923;45.412;10.852;2022-09-09T08:26:43;3.78;;;1.52;;
43327;SDS011;28923;45.412;10.852;2022-09-09T08:29:11;2.05;;;1.35;;
43327;SDS011;28923;45.412;10.852;2022-09-09T08:31:38;3.13;;;1.40;;
43327;SDS011;28923;45.412;10.852;2022-09-09T08:34:05;5.07;;;1.40;;
43327;SDS011;28923;45.412;10.852;2022-09-09T08:36:32;5.30;;;1.45;;
43327;SDS011;28923;45.412;10.852;2022-09-09T08:38:58;3.40;;;1.30;;
43327;SDS011;28923;45.412;10.852;2022-09-09T08:46:34;4.40;;;1.40;;
43327;SDS011;28923;45.412;10.852;2022-09-09T08:49:06;3.25;;;1.52;;
43327;SDS011;28923;45.412;10.852;2022-09-09T08:51:32;4.30;;;1.20;;
43327;SDS011;28923;45.412;10.852;2022-09-09T08:53:59;3.83;;;1.33;;
43327;SDS011;28923;45.412;10.852;2022-09-09T08:56:27;3.70;;;1.50;;
43327;SDS011;28923;45.412;10.852;2022-09-09T08:58:56;2.78;;;1.20;;
43327;SDS011;28923;45.412;10.852;2022-09-09T09:02:14;2.47;;;1.27;;
43327;SDS011;28923;45.412;10.852;2022-09-09T09:04:58;2.45;;;1.38;;
43327;SDS011;28923;45.412;10.852;2022-09-09T09:07:40;3.28;;;1.60;;
43327;SDS011;28923;45.412;10.852;2022-09-09T09:10:20;2.92;;;1.23;;
43327;SDS011;28923;45.412;10.852;2022-09-09T09:12:49;4.60;;;1.50;;
43327;SDS011;28923;45.412;10.852;2022-09-09T09:15:19;7.53;;;1.65;;
43327;SDS011;28923;45.412;10.852;2022-09-09T09:17:47;2.90;;;1.60;;
43327;SDS011;28923;45.412;10.852;2022-09-09T09:20:15;1.92;;;1.20;;
43327;SDS011;28923;45.412;10.852;2022-09-09T09:22:48;2.88;;;1.30;;
43327;SDS011;28923;45.412;10.852;2022-09-09T09:25:27;3.63;;;1.33;;
43327;SDS011;28923;45.412;10.852;2022-09-09T09:27:57;3.78;;;1.30;;
43327;SDS011;28923;45.412;10.852;2022-09-09T09:30:29;2.53;;;1.40;;
43327;SDS011;28923;45.412;10.852;2022-09-09T09:35:43;3.65;;;1.45;;
43327;SDS011;28923;45.412;10.852;2022-09-09T09:38:22;4.82;;;1.40;;
43327;SDS011;28923;45.412;10.852;2022-09-09T09:40:51;3.55;;;1.50;;
43327;SDS011;28923;45.412;10.852;2022-09-09T09:43:20;6.32;;;1.50;;
43327;SDS011;28923;45.412;10.852;2022-09-09T09:45:47;4.25;;;1.33;;
43327;SDS011;28923;45.412;10.852;2022-09-09T09:48:15;5.20;;;1.70;;
43327;SDS011;28923;45.412;10.852;2022-09-09T09:50:54;5.85;;;1.67;;
43327;SDS011;28923;45.412;10.852;2022-09-09T09:53:23;5.43;;;2.00;;
43327;SDS011;28923;45.412;10.852;2022-09-09T09:55:53;9.40;;;2.22;;
43327;SDS011;28923;45.412;10.852;2022-09-09T09:58:20;3.45;;;1.95;;
43327;SDS011;28923;45.412;10.852;2022-09-09T10:00:49;4.38;;;1.52;;
43327;SDS011;28923;45.412;10.852;2022-09-09T10:03:23;3.70;;;1.52;;
43327;SDS011;28923;45.412;10.852;2022-09-09T10:05:50;5.75;;;1.60;;
43327;SDS011;28923;45.412;10.852;2022-09-09T10:08:16;4.50;;;1.25;;
43327;SDS011;28923;45.412;10.852;2022-09-09T10:13:13;4.85;;;1.55;;
43327;SDS011;28923;45.412;10.852;2022-09-09T10:21:07;3.08;;;1.20;;
43327;SDS011;28923;45.412;10.852;2022-09-09T10:26:35;2.63;;;1.30;;
43327;SDS011;28923;45.412;10.852;2022-09-09T10:36:32;2.17;;;1.20;;
43327;SDS011;28923;45.412;10.852;2022-09-09T10:38:59;2.20;;;1.00;;
43327;SDS011;28923;45.412;10.852;2022-09-09T10:41:33;2.53;;;0.85;;
43327;SDS011;28923;45.412;10.852;2022-09-09T10:44:15;2.55;;;1.50;;
43327;SDS011;28923;45.412;10.852;2022-09-09T10:47:02;2.78;;;1.58;;
43327;SDS011;28923;45.412;10.852;2022-09-09T10:52:31;3.80;;;1.00;;
43327;SDS011;28923;45.412;10.852;2022-09-09T10:55:00;5.63;;;1.30;;
43327;SDS011;28923;45.412;10.852;2022-09-09T10:59:58;3.97;;;1.27;;
43327;SDS011;28923;45.412;10.852;2022-09-09T11:02:29;3.88;;;1.38;;
43327;SDS011;28923;45.412;10.852;2022-09-09T11:04:56;2.97;;;1.20;;
43327;SDS011;28923;45.412;10.852;2022-09-09T11:07:42;3.00;;;1.17;;
43327;SDS011;28923;45.412;10.852;2022-09-09T11:10:16;2.03;;;1.23;;
43327;SDS011;28923;45.412;10.852;2022-09-09T11:12:43;2.72;;;1.00;;
43327;SDS011;28923;45.412;10.852;2022-09-09T11:15:17;2.10;;;1.05;;
43327;SDS011;28923;45.412;10.852;2022-09-09T11:17:49;1.98;;;1.10;;
43327;SDS011;28923;45.412;10.852;2022-09-09T11:20:15;1.63;;;1.05;;
43327;SDS011;28923;45.412;10.852;2022-09-09T11:27:51;3.72;;;1.15;;
43327;SDS011;28923;45.412;10.852;2022-09-09T11:30:20;1.25;;;1.00;;
43327;SDS011;28923;45.412;10.852;2022-09-09T11:35:37;2.95;;;0.98;;
43327;SDS011;28923;45.412;10.852;2022-09-09T11:40:59;1.58;;;1.08;;
43327;SDS011;28923;45.412;10.852;2022-09-09T11:43:34;0.90;;;0.90;;
43327;SDS011;28923;45.412;10.852;2022-09-09T11:46:03;3.63;;;0.90;;
43327;SDS011;28923;45.412;10.852;2022-09-09T11:48:31;1.80;;;0.75;;
43327;SDS011;28923;45.412;10.852;2022-09-09T11:51:08;1.95;;;0.90;;
43327;SDS011;28923;45.412;10.852;2022-09-09T11:53:47;3.22;;;0.77;;
43327;SDS011;28923;45.412;10.852;2022-09-09T11:56:23;1.33;;;0.77;;
43327;SDS011;28923;45.412;10.852;2022-09-09T11:59:06;1.45;;;0.90;;
43327;SDS011;28923;45.412;10.852;2022-09-09T12:04:14;4.03;;;0.68;;
43327;SDS011;28923;45.412;10.852;2022-09-09T12:06:44;5.65;;;0.93;;
43327;SDS011;28923;45.412;10.852;2022-09-09T12:09:18;3.90;;;1.00;;
43327;SDS011;28923;45.412;10.852;2022-09-09T12:11:45;6.38;;;1.48;;
43327;SDS011;28923;45.412;10.852;2022-09-09T12:14:21;4.05;;;0.80;;
43327;SDS011;28923;45.412;10.852;2022-09-09T12:16:47;6.40;;;1.17;;
43327;SDS011;28923;45.412;10.852;2022-09-09T12:19:18;3.90;;;1.30;;
43327;SDS011;28923;45.412;10.852;2022-09-09T12:24:27;7.32;;;1.00;;
43327;SDS011;28923;45.412;10.852;2022-09-09T12:29:27;4.00;;;1.00;;
43327;SDS011;28923;45.412;10.852;2022-09-09T12:32:15;4.65;;;1.33;;
43327;SDS011;28923;45.412;10.852;2022-09-09T12:34:47;1.55;;;0.75;;
43327;SDS011;28923;45.412;10.852;2022-09-09T12:39:42;2.17;;;0.77;;
43327;SDS011;28923;45.412;10.852;2022-09-09T12:42:21;2.43;;;1.03;;
43327;SDS011;28923;45.412;10.852;2022-09-09T12:44:51;3.45;;;0.95;;
43327;SDS011;28923;45.412;10.852;2022-09-09T12:47:18;4.20;;;1.38;;
43327;SDS011;28923;45.412;10.852;2022-09-09T12:49:46;8.15;;;1.20;;
43327;SDS011;28923;45.412;10.852;2022-09-09T12:54:50;6.07;;;1.00;;
43327;SDS011;28923;45.412;10.852;2022-09-09T12:57:19;6.63;;;0.88;;
43327;SDS011;28923;45.412;10.852;2022-09-09T12:59:45;1.75;;;0.98;;
43327;SDS011;28923;45.412;10.852;2022-09-09T13:04:45;6.53;;;1.00;;
43327;SDS011;28923;45.412;10.852;2022-09-09T13:07:12;2.55;;;0.90;;
43327;SDS011;28923;45.412;10.852;2022-09-09T13:09:39;2.85;;;1.05;;
43327;SDS011;28923;45.412;10.852;2022-09-09T13:12:05;3.30;;;1.02;;
43327;SDS011;28923;45.412;10.852;2022-09-09T13:14:33;4.78;;;1.63;;
43327;SDS011;28923;45.412;10.852;2022-09-09T13:17:03;3.05;;;1.40;;
43327;SDS011;28923;45.412;10.852;2022-09-09T13:19:29;2.25;;;0.80;;
43327;SDS011;28923;45.412;10.852;2022-09-09T13:21:57;2.88;;;1.45;;
43327;SDS011;28923;45.412;10.852;2022-09-09T13:24:33;3.65;;;1.38;;
43327;SDS011;28923;45.412;10.852;2022-09-09T13:26:59;4.85;;;1.00;;
43327;SDS011;28923;45.412;10.852;2022-09-09T13:29:27;2.22;;;1.05;;
43327;SDS011;28923;45.412;10.852;2022-09-09T13:31:53;2.65;;;1.10;;
43327;SDS011;28923;45.412;10.852;2022-09-09T13:34:30;2.25;;;1.15;;
43327;SDS011;28923;45.412;10.852;2022-09-09T13:36:59;1.02;;;0.82;;
43327;SDS011;28923;45.412;10.852;2022-09-09T13:39:27;1.63;;;1.13;;
43327;SDS011;28923;45.412;10.852;2022-09-09T13:41:53;2.75;;;1.05;;
43327;SDS011;28923;45.412;10.852;2022-09-09T13:44:21;2.83;;;0.80;;
43327;SDS011;28923;45.412;10.852;2022-09-09T13:46:58;1.60;;;1.13;;
43327;SDS011;28923;45.412;10.852;2022-09-09T13:49:24;2.10;;;1.17;;
43327;SDS011;28923;45.412;10.852;2022-09-09T13:52:03;4.43;;;0.93;;
43327;SDS011;28923;45.412;10.852;2022-09-09T13:54:29;3.45;;;1.00;;
43327;SDS011;28923;45.412;10.852;2022-09-09T13:56:56;1.75;;;0.80;;
43327;SDS011;28923;45.412;10.852;2022-09-09T13:59:22;1.90;;;0.90;;
43327;SDS011;28923;45.412;10.852;2022-09-09T14:01:49;2.22;;;0.90;;
43327;SDS011;28923;45.412;10.852;2022-09-09T14:04:15;3.13;;;0.80;;
43327;SDS011;28923;45.412;10.852;2022-09-09T14:06:41;4.15;;;1.20;;
43327;SDS011;28923;45.412;10.852;2022-09-09T14:09:07;1.98;;;0.73;;
43327;SDS011;28923;45.412;10.852;2022-09-09T14:11:36;2.83;;;0.90;;
43327;SDS011;28923;45.412;10.852;2022-09-09T14:14:01;6.72;;;1.50;;
43327;SDS011;28923;45.412;10.852;2022-09-09T14:16:27;9.18;;;1.67;;
43327;SDS011;28923;45.412;10.852;2022-09-09T14:18:53;12.63;;;2.30;;
43327;SDS011;28923;45.412;10.852;2022-09-09T14:21:18;6.78;;;1.55;;
43327;SDS011;28923;45.412;10.852;2022-09-09T14:23:43;7.63;;;1.90;;
43327;SDS011;28923;45.412;10.852;2022-09-09T14:26:09;10.80;;;2.10;;
43327;SDS011;28923;45.412;10.852;2022-09-09T14:28:35;7.68;;;2.10;;
43327;SDS011;28923;45.412;10.852;2022-09-09T14:31:01;11.18;;;2.40;;
43327;SDS011;28923;45.412;10.852;2022-09-09T14:33:27;9.05;;;1.40;;
43327;SDS011;28923;45.412;10.852;2022-09-09T14:36:00;8.38;;;1.83;;
43327;SDS011;28923;45.412;10.852;2022-09-09T14:38:30;6.05;;;1.50;;
43327;SDS011;28923;45.412;10.852;2022-09-09T14:40:55;3.67;;;1.42;;
43327;SDS011;28923;45.412;10.852;2022-09-09T14:43:21;7.78;;;1.60;;
43327;SDS011;28923;45.412;10.852;2022-09-09T14:45:47;6.03;;;1.50;;
43327;SDS011;28923;45.412;10.852;2022-09-09T14:48:13;9.25;;;1.85;;
43327;SDS011;28923;45.412;10.852;2022-09-09T14:50:39;4.20;;;1.30;;
43327;SDS011;28923;45.412;10.852;2022-09-09T14:53:05;5.35;;;1.65;;
43327;SDS011;28923;45.412;10.852;2022-09-09T14:55:31;4.88;;;1.40;;
43327;SDS011;28923;45.412;10.852;2022-09-09T14:57:56;3.88;;;1.20;;
43327;SDS011;28923;45.412;10.852;2022-09-09T15:00:21;4.57;;;1.48;;
43327;SDS011;28923;45.412;10.852;2022-09-09T15:02:47;5.70;;;1.52;;
43327;SDS011;28923;45.412;10.852;2022-09-09T15:05:13;5.53;;;1.20;;
43327;SDS011;28923;45.412;10.852;2022-09-09T15:07:40;2.17;;;1.25;;
43327;SDS011;28923;45.412;10.852;2022-09-09T15:10:05;1.85;;;0.90;;
43327;SDS011;28923;45.412;10.852;2022-09-09T15:12:31;2.80;;;1.20;;
43327;SDS011;28923;45.412;10.852;2022-09-09T15:14:58;1.55;;;0.95;;
43327;SDS011;28923;45.412;10.852;2022-09-09T15:17:23;3.85;;;1.30;;
43327;SDS011;28923;45.412;10.852;2022-09-09T15:19:50;3.60;;;0.90;;
43327;SDS011;28923;45.412;10.852;2022-09-09T15:22:16;3.05;;;1.17;;
43327;SDS011;28923;45.412;10.852;2022-09-09T15:24:41;2.28;;;1.00;;
43327;SDS011;28923;45.412;10.852;2022-09-09T15:27:07;3.90;;;1.13;;
43327;SDS011;28923;45.412;10.852;2022-09-09T15:29:32;2.67;;;1.30;;
43327;SDS011;28923;45.412;10.852;2022-09-09T15:31:58;2.90;;;1.10;;
43327;SDS011;28923;45.412;10.852;2022-09-09T15:34:23;2.67;;;0.95;;
43327;SDS011;28923;45.412;10.852;2022-09-09T15:36:48;1.27;;;0.93;;
43327;SDS011;28923;45.412;10.852;2022-09-09T15:39:15;1.60;;;0.80;;
43327;SDS011;28923;45.412;10.852;2022-09-09T15:41:41;2.45;;;1.02;;
43327;SDS011;28923;45.412;10.852;2022-09-09T15:44:07;3.15;;;1.00;;
43327;SDS011;28923;45.412;10.852;2022-09-09T15:46:36;2.22;;;0.70;;
43327;SDS011;28923;45.412;10.852;2022-09-09T15:51:27;2.58;;;0.80;;
43327;SDS011;28923;45.412;10.852;2022-09-09T15:53:57;1.63;;;0.93;;
43327;SDS011;28923;45.412;10.852;2022-09-09T15:56:23;2.38;;;0.82;;
43327;SDS011;28923;45.412;10.852;2022-09-09T15:58:48;1.80;;;0.70;;
43327;SDS011;28923;45.412;10.852;2022-09-09T16:01:14;1.25;;;0.85;;
43327;SDS011;28923;45.412;10.852;2022-09-09T16:03:41;1.80;;;0.73;;
43327;SDS011;28923;45.412;10.852;2022-09-09T16:06:07;1.05;;;0.52;;
43327;SDS011;28923;45.412;10.852;2022-09-09T16:11:08;1.80;;;0.70;;
43327;SDS011;28923;45.412;10.852;2022-09-09T16:13:38;1.88;;;0.80;;
43327;SDS011;28923;45.412;10.852;2022-09-09T16:16:04;1.58;;;0.73;;
43327;SDS011;28923;45.412;10.852;2022-09-09T16:18:34;0.90;;;0.50;;
43327;SDS011;28923;45.412;10.852;2022-09-09T16:21:00;1.38;;;0.70;;
43327;SDS011;28923;45.412;10.852;2022-09-09T16:23:25;1.10;;;0.55;;
43327;SDS011;28923;45.412;10.852;2022-09-09T16:25:56;1.27;;;0.65;;
43327;SDS011;28923;45.412;10.852;2022-09-09T16:28:22;1.27;;;0.60;;
43327;SDS011;28923;45.412;10.852;2022-09-09T16:30:48;4.25;;;0.90;;
43327;SDS011;28923;45.412;10.852;2022-09-09T16:33:13;1.05;;;0.60;;
43327;SDS011;28923;45.412;10.852;2022-09-09T16:35:40;2.08;;;0.60;;
43327;SDS011;28923;45.412;10.852;2022-09-09T16:38:05;1.17;;;0.50;;
43327;SDS011;28923;45.412;10.852;2022-09-09T16:40:35;2.00;;;0.63;;
43327;SDS011;28923;45.412;10.852;2022-09-09T16:43:01;1.15;;;0.60;;